Time;durP1;ratioP1;P1;durP2;ratioP2;P2;SDS_P1;SDS_P2;PMS_P1;PMS_P2;Temp;Humidity;BMP_temperature;BMP_pressure;BME280_temperature;BME280_humidity;BME280_pressure;Samples;Min_cycle;Max_cycle;Signal;HPM_P1;HPM_P2
2022/04/05 00:00:11;;;;;;;;;14.00;13.67;;;;;13.48;53.50;100616.53;5111270;27;45453;-82
2022/04/05 00:02:37;;;;;;;;;16.00;14.67;;;;;13.35;53.32;100613.88;5110076;27;45580;-82
2022/04/05 00:05:02;;;;;;;;;16.00;15.00;;;;;13.36;53.50;100602.28;5110332;27;45540;-81
2022/04/05 00:07:28;;;;;;;;;13.67;13.67;;;;;13.37;53.40;100619.19;5112261;27;45470;-80
2022/04/05 00:13:15;;;;;;;;;8.67;8.67;;;;;13.39;54.55;100621.00;5111753;27;45499;-80
2022/04/05 00:15:41;;;;;;;;;14.33;11.67;;;;;13.39;54.79;100618.31;5110371;27;45739;-80
2022/04/05 00:18:06;;;;;;;;;15.33;13.00;;;;;13.36;54.72;100617.44;5106929;27;48004;-80
2022/04/05 00:20:31;;;;;;;;;13.00;13.00;;;;;13.30;54.90;100607.63;5102178;27;45638;-81
2022/04/05 00:23:50;;;;;;;;;10.33;10.33;;;;;13.58;54.58;100619.19;5102921;27;45496;-81
2022/04/05 00:26:16;;;;;;;;;11.00;11.00;;;;;13.30;54.84;100620.09;5101875;27;45490;-81
2022/04/05 00:28:41;;;;;;;;;16.33;14.33;;;;;13.30;54.88;100620.97;5104445;27;46430;-81
2022/04/05 00:31:06;;;;;;;;;15.67;15.33;;;;;13.28;55.86;100600.47;5104007;27;45381;-81
2022/04/05 00:33:32;;;;;;;;;11.00;10.67;;;;;13.37;55.39;100619.19;5104992;27;45354;-81
2022/04/05 00:35:57;;;;;;;;;14.00;14.00;;;;;13.31;56.09;100616.50;5107171;27;44812;-81
2022/04/05 00:38:22;;;;;;;;;13.67;12.33;;;;;13.32;55.90;100618.31;5099781;27;46951;-81
2022/04/05 00:40:48;;;;;;;;;14.33;13.33;;;;;13.37;55.60;100619.19;5085164;27;45420;-80
2022/04/05 00:43:13;;;;;;;;;13.00;12.67;;;;;13.32;56.13;100611.19;5086275;27;45416;-80
2022/04/05 00:45:39;;;;;;;;;19.00;16.67;;;;;13.37;56.10;100619.19;5086435;28;45443;-80
2022/04/05 00:48:04;;;;;;;;;15.00;14.67;;;;;13.36;56.57;100618.31;5087403;27;46854;-80
2022/04/05 00:50:35;;;;;;;;;13.00;12.67;;;;;13.47;57.52;100614.75;5081380;28;45609;-79
2022/04/05 00:53:03;;;;;;;;;13.00;11.33;;;;;13.29;56.75;100611.19;5082813;28;45752;-81
2022/04/05 00:55:31;;;;;;;;;14.33;13.33;;;;;13.41;59.34;100612.97;5084347;27;45527;-81
2022/04/05 00:58:01;;;;;;;;;14.67;14.67;;;;;13.32;57.90;100594.28;5081767;28;47983;-81
2022/04/05 01:00:29;;;;;;;;;8.33;8.33;;;;;13.36;58.29;100607.63;5082509;27;45418;-81
2022/04/05 01:02:56;;;;;;;;;17.00;15.00;;;;;13.32;57.78;100611.19;5083404;27;45453;-81
2022/04/05 01:05:23;;;;;;;;;15.00;15.00;;;;;13.35;58.22;100605.84;5086988;27;45406;-81
2022/04/05 01:07:50;;;;;;;;;13.00;13.00;;;;;13.39;57.86;100606.72;5086421;27;47187;-81
2022/04/05 01:10:16;;;;;;;;;10.00;10.00;;;;;13.21;58.79;100594.25;5084203;27;45481;-80
2022/04/05 01:12:42;;;;;;;;;11.00;9.00;;;;;13.25;58.76;100590.69;5086119;27;45535;-80
2022/04/05 01:15:08;;;;;;;;;14.00;14.00;;;;;13.23;58.72;100599.56;5087020;27;45440;-81
2022/04/05 01:17:35;;;;;;;;;13.67;11.00;;;;;13.31;59.13;100609.41;5103727;27;45457;-81
2022/04/05 01:20:01;;;;;;;;;11.00;11.00;;;;;13.36;58.71;100596.06;5085842;27;45642;-81
2022/04/05 01:22:26;;;;;;;;;10.33;10.33;;;;;13.28;58.97;100596.00;5104757;27;45703;-80
2022/04/05 01:24:52;;;;;;;;;13.00;13.00;;;;;13.30;59.08;100598.72;5104601;27;45750;-80
2022/04/05 01:27:19;;;;;;;;;14.00;11.67;;;;;13.25;58.89;100579.09;5103754;27;45474;-80
2022/04/05 01:29:46;;;;;;;;;13.00;11.00;;;;;13.32;58.87;100584.47;5085820;27;45628;-81
2022/04/05 01:32:11;;;;;;;;;14.00;14.00;;;;;13.24;59.36;100580.00;5106345;27;45546;-81
2022/04/05 01:34:38;;;;;;;;;15.00;11.67;;;;;13.36;59.63;100593.38;5087490;27;45785;-80
2022/04/05 01:37:07;;;;;;;;;12.67;12.67;;;;;13.36;59.57;100586.25;5086062;27;47042;-80
2022/04/05 01:39:35;;;;;;;;;11.67;11.00;;;;;13.37;59.50;100593.41;5103852;27;45736;-80
2022/04/05 01:42:05;;;;;;;;;8.00;8.00;;;;;13.44;60.12;100580.03;5101428;27;45368;-80
2022/04/05 01:44:33;;;;;;;;;15.00;14.67;;;;;13.39;60.62;100588.94;5103041;27;45901;-80
2022/04/05 01:47:06;;;;;;;;;14.33;13.67;;;;;13.51;60.06;100579.13;5103094;27;45484;-81
2022/04/05 01:49:31;;;;;;;;;16.00;14.67;;;;;13.25;60.33;100577.34;5083249;27;45482;-80
2022/04/05 01:51:57;;;;;;;;;10.67;9.67;;;;;13.23;61.10;100563.09;5082398;27;45472;-82
2022/04/05 01:54:22;;;;;;;;;15.00;15.00;;;;;13.28;59.68;100571.97;5083242;27;45400;-81
2022/04/05 01:56:50;;;;;;;;;15.00;14.00;;;;;13.38;59.83;100572.91;5084338;27;48284;-81
2022/04/05 01:59:18;;;;;;;;;21.00;16.00;;;;;13.42;59.88;100569.34;5102447;27;46015;-81
2022/04/05 02:01:50;;;;;;;;;14.67;13.33;;;;;13.52;60.02;100564.88;5084422;27;45413;-81
2022/04/05 02:04:16;;;;;;;;;11.67;11.67;;;;;13.26;60.86;100557.72;5081913;28;45506;-80
2022/04/05 02:06:43;;;;;;;;;15.67;13.67;;;;;13.29;60.33;100560.44;5082611;27;46298;-80
2022/04/05 02:09:09;;;;;;;;;16.67;15.33;;;;;13.31;61.24;100566.69;5081802;28;45352;-80
2022/04/05 02:11:37;;;;;;;;;11.33;11.33;;;;;13.43;61.18;100564.88;5083897;27;45411;-80
2022/04/05 02:14:03;;;;;;;;;14.00;14.00;;;;;13.19;61.96;100561.31;5083101;28;45485;-80
2022/04/05 02:16:28;;;;;;;;;13.67;10.67;;;;;13.25;61.44;100571.06;5081095;28;46754;-80
2022/04/05 02:18:54;;;;;;;;;13.67;12.00;;;;;13.24;62.82;100570.19;5066088;28;45582;-81
2022/04/05 02:21:19;;;;;;;;;13.00;11.00;;;;;13.27;61.72;100570.22;5084412;28;45783;-80
2022/04/05 02:23:46;;;;;;;;;15.00;13.00;;;;;13.40;61.28;100572.00;5087406;27;45381;-81
2022/04/05 02:26:12;;;;;;;;;14.00;14.00;;;;;13.28;61.89;100569.31;5090581;27;45585;-82
2022/04/05 02:28:38;;;;;;;;;15.00;13.00;;;;;13.26;62.18;100568.41;5090398;28;46153;-81
2022/04/05 02:31:03;;;;;;;;;12.33;12.33;;;;;13.24;61.98;100564.84;5104962;27;44807;-80
2022/04/05 02:33:29;;;;;;;;;12.67;12.67;;;;;13.32;62.76;100564.91;5110280;27;45985;-80
2022/04/05 02:35:54;;;;;;;;;14.33;14.33;;;;;13.30;62.80;100553.31;5112665;27;46011;-80
2022/04/05 02:38:20;;;;;;;;;19.00;14.33;;;;;13.28;63.47;100544.38;5115388;27;44794;-82
2022/04/05 02:40:46;;;;;;;;;16.67;13.33;;;;;13.34;63.75;100555.97;5113256;27;44752;-80
2022/04/05 02:43:12;;;;;;;;;14.00;14.00;;;;;13.31;63.29;100561.34;5113452;27;45391;-80
2022/04/05 02:45:37;;;;;;;;;13.00;13.00;;;;;13.29;63.32;100557.78;5112897;27;46136;-80
2022/04/05 02:48:04;;;;;;;;;15.00;11.00;;;;;13.43;64.07;100564.88;5112133;27;45513;-81
2022/04/05 02:50:30;;;;;;;;;13.00;13.00;;;;;13.25;64.84;100547.03;5112088;27;45771;-80
2022/04/05 02:52:56;;;;;;;;;13.67;13.00;;;;;13.24;64.19;100551.50;5107367;27;45502;-80
2022/04/05 02:55:21;;;;;;;;;9.00;7.00;;;;;13.25;63.65;100550.63;5106269;27;47190;-81
2022/04/05 02:57:48;;;;;;;;;16.33;13.33;;;;;13.27;64.00;100543.50;5106351;27;45327;-81
2022/04/05 03:00:17;;;;;;;;;13.00;13.00;;;;;13.35;65.02;100555.09;5106178;27;44819;-81
2022/04/05 03:02:44;;;;;;;;;11.00;9.33;;;;;13.26;64.76;100540.81;5105974;27;45503;-80
2022/04/05 03:05:10;;;;;;;;;12.33;9.67;;;;;13.28;64.61;100550.59;5123890;27;46158;-80
2022/04/05 03:07:37;;;;;;;;;10.00;10.00;;;;;13.24;64.40;100540.81;5128142;27;45521;-80
2022/04/05 03:10:07;;;;;;;;;14.00;11.33;;;;;13.25;64.51;100544.38;5108515;27;45408;-80
2022/04/05 03:12:35;;;;;;;;;13.67;13.00;;;;;13.22;64.73;100542.59;5109876;27;45618;-80
2022/04/05 03:15:50;;;;;;;;;10.00;10.00;;;;;13.47;65.33;100546.19;5110219;27;47131;-80
2022/04/05 03:18:15;;;;;;;;;12.00;11.67;;;;;13.17;65.49;100539.94;5127655;27;45925;-80
2022/04/05 03:20:41;;;;;;;;;13.67;11.00;;;;;13.19;65.79;100545.28;5108593;27;45483;-80
2022/04/05 03:23:07;;;;;;;;;13.33;11.33;;;;;13.15;66.13;100539.06;5109083;27;44900;-81
2022/04/05 03:25:33;;;;;;;;;11.33;11.33;;;;;13.13;65.69;100529.25;5127301;27;45446;-81
2022/04/05 03:28:54;;;;;;;;;10.00;9.33;;;;;13.43;65.11;100546.19;5126029;27;45406;-81
2022/04/05 03:31:19;;;;;;;;;11.67;9.33;;;;;13.15;65.88;100540.84;5109421;27;44878;-80
2022/04/05 03:33:46;;;;;;;;;13.33;11.67;;;;;13.15;66.11;100538.16;5128740;27;45462;-80
2022/04/05 03:36:11;;;;;;;;;9.67;8.33;;;;;13.09;67.33;100536.38;5127256;27;46188;-81
2022/04/05 03:38:37;;;;;;;;;8.67;8.67;;;;;13.13;66.92;100539.94;5107041;27;45389;-81
2022/04/05 03:41:52;;;;;;;;;12.67;11.33;;;;;13.36;66.71;100540.84;5126166;27;45399;-81
2022/04/05 03:44:17;;;;;;;;;11.67;9.00;;;;;13.07;68.26;100534.56;5106822;27;45779;-80
2022/04/05 03:46:43;;;;;;;;;8.33;8.00;;;;;13.08;69.89;100536.38;5125218;27;45928;-80
2022/04/05 03:49:08;;;;;;;;;9.33;9.33;;;;;13.07;69.24;100529.22;5125647;27;45361;-81
2022/04/05 03:51:34;;;;;;;;;13.33;12.67;;;;;13.06;68.81;100528.34;5126175;27;45844;-81
2022/04/05 03:54:00;;;;;;;;;14.67;12.67;;;;;13.18;70.27;100519.47;5107334;27;45403;-81
2022/04/05 03:56:26;;;;;;;;;11.33;11.33;;;;;12.99;71.17;100519.47;5106819;27;47003;-81
2022/04/05 03:58:51;;;;;;;;;13.67;11.33;;;;;13.03;69.49;100528.38;5106523;27;45446;-81
2022/04/05 04:01:17;;;;;;;;;11.67;11.67;;;;;13.04;69.18;100526.56;5108435;27;45567;-81
2022/04/05 04:03:43;;;;;;;;;9.33;9.00;;;;;13.00;69.23;100521.22;5103091;27;45510;-81
2022/04/05 04:06:09;;;;;;;;;11.33;8.67;;;;;13.05;69.47;100525.66;5109322;27;47856;-81
2022/04/05 04:08:35;;;;;;;;;9.00;7.00;;;;;13.08;68.89;100525.69;5109186;27;45617;-80
2022/04/05 04:11:02;;;;;;;;;10.33;10.33;;;;;13.13;68.77;100537.28;5112263;27;45455;-80
2022/04/05 04:13:28;;;;;;;;;10.33;9.00;;;;;13.13;68.98;100529.25;5111561;27;45571;-80
2022/04/05 04:15:54;;;;;;;;;10.00;10.00;;;;;13.18;68.90;100530.13;5111642;27;46771;-80
2022/04/05 04:18:20;;;;;;;;;14.33;10.00;;;;;13.08;69.69;100512.34;5112635;27;45674;-80
2022/04/05 04:20:48;;;;;;;;;11.67;9.33;;;;;13.01;71.31;100509.66;5111986;27;45620;-81
2022/04/05 04:23:14;;;;;;;;;8.33;7.00;;;;;13.08;69.98;100518.56;5111778;27;45456;-81
2022/04/05 04:25:40;;;;;;;;;13.67;13.67;;;;;13.05;69.72;100513.25;5113246;27;45564;-81
2022/04/05 04:28:06;;;;;;;;;11.33;10.33;;;;;13.14;73.22;100523.03;5112411;27;45246;-81
2022/04/05 04:30:37;;;;;;;;;15.67;11.33;;;;;13.20;70.49;100515.00;5110307;27;45507;-81
2022/04/05 04:33:03;;;;;;;;;10.00;10.00;;;;;13.06;70.33;100514.13;5091472;27;45381;-81
2022/04/05 04:35:30;;;;;;;;;8.33;8.33;;;;;13.06;70.30;100509.66;5086065;27;45775;-80
2022/04/05 04:37:55;;;;;;;;;10.33;9.00;;;;;13.03;70.41;100512.34;5086766;27;45516;-81
2022/04/05 04:40:21;;;;;;;;;11.00;10.00;;;;;13.11;71.10;100518.56;5100463;27;45376;-80
2022/04/05 04:42:47;;;;;;;;;9.67;8.67;;;;;13.10;70.39;100521.25;5106017;27;45459;-80
2022/04/05 04:45:13;;;;;;;;;9.00;9.00;;;;;13.08;71.53;100507.00;5105908;27;46978;-81
2022/04/05 04:47:40;;;;;;;;;10.00;10.00;;;;;13.23;71.68;100508.75;5105885;27;45367;-80
2022/04/05 04:50:08;;;;;;;;;10.00;10.00;;;;;13.14;70.72;100510.56;5090135;27;45446;-80
2022/04/05 04:52:33;;;;;;;;;13.00;11.33;;;;;13.12;70.92;100512.34;5109567;27;45462;-80
2022/04/05 04:54:59;;;;;;;;;10.00;10.00;;;;;13.14;70.72;100515.00;5108445;27;47155;-80
2022/04/05 04:57:25;;;;;;;;;14.00;12.33;;;;;13.13;71.24;100510.56;5109938;27;45476;-80
2022/04/05 04:59:52;;;;;;;;;8.67;8.00;;;;;13.17;71.10;100509.69;5110916;27;44794;-81
2022/04/05 05:02:22;;;;;;;;;14.00;11.33;;;;;13.17;72.36;100507.00;5110856;27;45403;-81
2022/04/05 05:04:48;;;;;;;;;13.33;13.00;;;;;13.07;71.24;100503.44;5120379;27;45360;-82
2022/04/05 05:07:14;;;;;;;;;11.67;9.67;;;;;13.11;71.64;100515.91;5123652;27;46082;-81
2022/04/05 05:09:41;;;;;;;;;11.00;11.00;;;;;13.20;72.56;100513.22;5105333;27;45513;-81
2022/04/05 05:12:07;;;;;;;;;10.67;10.67;;;;;13.16;71.65;100513.22;5125447;27;45837;-81
2022/04/05 05:14:33;;;;;;;;;13.00;13.00;;;;;13.12;71.33;100512.34;5104665;27;47290;-80
2022/04/05 05:16:58;;;;;;;;;8.67;8.00;;;;;13.15;70.80;100514.13;5104378;27;45371;-81
2022/04/05 05:19:24;;;;;;;;;10.33;10.33;;;;;13.19;71.75;100521.25;5104438;27;45727;-80
2022/04/05 05:21:51;;;;;;;;;15.00;14.00;;;;;13.28;71.60;100509.66;5104153;27;45653;-80
2022/04/05 05:24:16;;;;;;;;;12.00;10.33;;;;;13.18;71.60;100511.44;5123209;27;46073;-79
2022/04/05 05:26:41;;;;;;;;;12.00;12.00;;;;;13.19;71.49;100506.13;5124540;27;46024;-80
2022/04/05 05:29:07;;;;;;;;;13.33;13.33;;;;;13.20;71.86;100509.66;5124341;27;45446;-81
2022/04/05 05:31:32;;;;;;;;;10.33;10.33;;;;;13.19;71.96;100505.22;5124254;27;45494;-81
2022/04/05 05:34:54;;;;;;;;;14.00;13.00;;;;;13.40;72.96;100507.91;5106775;27;46925;-80
2022/04/05 05:37:19;;;;;;;;;16.33;16.33;;;;;13.14;72.91;100499.88;5104962;27;45431;-81
2022/04/05 05:39:45;;;;;;;;;14.00;11.00;;;;;13.22;72.37;100505.22;5105744;27;45306;-81
2022/04/05 05:42:10;;;;;;;;;10.67;10.67;;;;;13.20;72.49;100504.31;5125744;27;45377;-81
2022/04/05 05:44:36;;;;;;;;;11.00;11.00;;;;;13.27;71.77;100508.78;5125266;27;46047;-81
2022/04/05 05:47:03;;;;;;;;;10.00;10.00;;;;;13.33;72.32;100500.78;5125473;27;45739;-81
2022/04/05 05:49:29;;;;;;;;;15.00;15.00;;;;;13.30;72.32;100510.59;5129778;27;45482;-81
2022/04/05 05:51:54;;;;;;;;;12.33;12.00;;;;;13.27;71.82;100500.78;5108327;27;45522;-80
2022/04/05 05:54:20;;;;;;;;;11.67;11.67;;;;;13.34;71.71;100513.25;5110330;27;46783;-80
2022/04/05 05:56:45;;;;;;;;;9.67;9.00;;;;;13.33;70.99;100511.47;5111886;27;45482;-84
2022/04/05 05:59:11;;;;;;;;;15.00;10.67;;;;;13.42;71.61;100515.91;5131263;27;45487;-85
2022/04/05 06:01:43;;;;;;;;;12.67;10.33;;;;;13.45;71.74;100521.25;5130191;27;44787;-84
2022/04/05 06:04:14;;;;;;;;;14.00;11.67;;;;;13.62;71.47;100521.22;5108349;27;46880;-84
2022/04/05 06:06:39;;;;;;;;;10.00;9.00;;;;;13.46;71.53;100528.38;5110422;27;45389;-84
2022/04/05 06:09:04;;;;;;;;;9.00;9.00;;;;;13.45;71.53;100515.00;5110124;27;45511;-84
2022/04/05 06:11:30;;;;;;;;;10.00;10.00;;;;;13.52;71.88;100517.69;5109778;27;45251;-84
2022/04/05 06:13:55;;;;;;;;;12.00;12.00;;;;;13.49;72.06;100532.81;5109411;27;48348;-83
2022/04/05 06:16:21;;;;;;;;;12.00;12.00;;;;;13.53;72.27;100534.59;5108927;27;45676;-84
2022/04/05 06:18:47;;;;;;;;;13.00;11.00;;;;;13.51;72.79;100525.69;5107485;27;45482;-81
2022/04/05 06:21:16;;;;;;;;;9.00;9.00;;;;;13.59;72.35;100529.25;5104111;27;45474;-81
2022/04/05 06:23:42;;;;;;;;;11.00;11.00;;;;;13.55;72.74;100538.16;5104094;27;45589;-81
2022/04/05 06:26:08;;;;;;;;;10.00;10.00;;;;;13.55;73.33;100533.72;5103714;27;45448;-81
2022/04/05 06:28:34;;;;;;;;;13.67;13.67;;;;;13.55;73.31;100543.50;5103688;27;45448;-80
2022/04/05 06:30:59;;;;;;;;;10.67;8.33;;;;;13.52;73.25;100539.06;5103520;27;45210;-81
2022/04/05 06:33:25;;;;;;;;;12.67;11.00;;;;;13.49;73.25;100543.50;5099271;27;48046;-81
2022/04/05 06:35:56;;;;;;;;;10.00;9.00;;;;;13.75;74.14;100570.19;5102343;27;45463;-81
2022/04/05 06:41:43;;;;;;;;;10.00;7.00;;;;;13.59;75.17;100561.31;5102756;27;45838;-83
2022/04/05 06:44:09;;;;;;;;;12.33;12.33;;;;;13.58;75.36;100556.88;5100829;27;48025;-83
2022/04/05 06:46:34;;;;;;;;;12.67;10.33;;;;;13.58;76.83;100554.19;5098881;27;45424;-81
2022/04/05 06:49:02;;;;;;;;;14.00;13.67;;;;;13.75;76.20;100547.00;5088879;27;45523;-83
2022/04/05 06:51:29;;;;;;;;;13.33;11.00;;;;;13.64;75.93;100548.84;5103724;27;45225;-82
2022/04/05 06:53:56;;;;;;;;;13.67;13.33;;;;;13.65;75.77;100534.56;5106782;27;46348;-82
2022/04/05 06:56:26;;;;;;;;;15.67;14.33;;;;;13.70;75.73;100546.16;5104915;27;45634;-81
2022/04/05 06:58:52;;;;;;;;;11.00;10.00;;;;;13.76;75.53;100543.47;5100040;27;45571;-81
2022/04/05 07:01:18;;;;;;;;;13.67;9.00;;;;;13.79;75.28;100534.53;5091986;27;45401;-83
2022/04/05 07:03:43;;;;;;;;;10.00;8.33;;;;;13.85;75.00;100552.34;5105334;27;47009;-83
2022/04/05 07:06:09;;;;;;;;;8.00;7.67;;;;;13.82;75.56;100539.00;5119173;27;45886;-82
2022/04/05 07:08:34;;;;;;;;;11.00;10.00;;;;;13.86;75.43;100535.44;5108273;27;45454;-82
2022/04/05 07:11:00;;;;;;;;;12.00;9.00;;;;;13.93;75.09;100542.53;5132103;27;45334;-82
2022/04/05 07:13:25;;;;;;;;;9.67;9.67;;;;;13.94;75.46;100536.31;5115179;27;45433;-82
2022/04/05 07:19:12;;;;;;;;;9.00;9.00;;;;;14.02;75.25;100539.84;5129510;27;44786;-83
2022/04/05 07:22:06;;;;;;;;;12.00;10.67;;;;;14.27;74.33;100531.72;5116158;27;45398;-83
2022/04/05 07:25:23;;;;;;;;;;;;;;;;;;;;;
2022/04/05 07:27:53;;;;;;;;;11.00;9.00;;;;;14.16;75.26;100524.63;5035695;28;71987;-82
2022/04/05 07:30:57;;;;;;;;;;;;;;;;;;;;;
2022/04/05 07:33:33;;;;;;;;;8.33;8.00;;;;;14.26;75.57;100524.56;5023141;28;65042;-84
2022/04/05 07:36:18;;;;;;;;;9.67;8.67;;;;;14.10;75.35;100527.34;5039123;28;46221;-83
2022/04/05 07:42:16;;;;;;;;;11.00;10.00;;;;;14.35;75.46;100520.06;4998163;28;44817;-83
2022/04/05 07:51:07;;;;;;;;;13.33;11.00;;;;;14.48;74.67;100539.66;4958011;28;46145;-84
2022/04/05 07:53:46;;;;;;;;;10.33;10.33;;;;;14.58;73.49;100525.34;4956029;28;45485;-84
2022/04/05 07:56:14;;;;;;;;;9.33;9.33;;;;;14.69;74.84;100540.47;4949867;28;44989;-83
2022/04/05 07:58:42;;;;;;;;;2.67;2.67;;;;;14.68;76.10;100542.22;4950290;28;46459;-83
2022/04/05 08:01:29;;;;;;;;;9.00;9.00;;;;;14.90;74.44;100532.25;4952253;28;45403;-83
2022/04/05 08:04:10;;;;;;;;;11.00;9.00;;;;;14.78;74.81;100505.56;4948655;28;44916;-82
2022/04/05 08:06:36;;;;;;;;;9.00;9.00;;;;;14.80;74.94;100541.25;4954985;28;44831;-83
2022/04/05 08:09:05;;;;;;;;;15.00;13.33;;;;;14.77;73.88;100493.09;4964289;28;45401;-82
2022/04/05 08:11:36;;;;;;;;;11.00;11.00;;;;;14.88;73.76;100533.19;4972713;28;44855;-83
2022/04/05 08:14:07;;;;;;;;;10.00;10.00;;;;;15.04;72.74;100533.97;4954223;28;45662;-83
2022/04/05 08:16:33;;;;;;;;;11.00;10.00;;;;;14.72;73.09;100516.34;4952914;28;45741;-84
2022/04/05 08:19:06;;;;;;;;;9.33;9.33;;;;;15.04;72.83;100545.56;5014198;28;45604;-84
2022/04/05 08:21:38;;;;;;;;;9.67;8.33;;;;;14.98;72.67;100537.56;5032789;28;44956;-83
2022/04/05 08:24:11;;;;;;;;;14.67;11.00;;;;;14.86;72.88;100537.66;5050538;28;45418;-83
2022/04/05 08:26:53;;;;;;;;;12.00;11.00;;;;;14.91;72.71;100527.81;5034728;28;45367;-84
2022/04/05 08:29:18;;;;;;;;;12.00;12.00;;;;;14.95;72.92;100546.53;5073564;28;46773;-84
2022/04/05 08:31:47;;;;;;;;;14.67;13.33;;;;;14.92;73.25;100519.75;5070891;28;45796;-84
2022/04/05 08:34:41;;;;;;;;;;;;;;;;;;;;;
2022/04/05 08:38:03;;;;;;;;;;;;;;;;;;;;;
2022/04/05 08:40:29;;;;;;;;;13.67;12.00;;;;;15.22;72.18;100555.25;5056129;28;74021;-82
2022/04/05 08:43:36;;;;;;;;;14.67;14.67;;;;;15.13;72.22;100513.34;5060606;28;45538;-84
2022/04/05 08:46:03;;;;;;;;;13.00;12.33;;;;;15.15;72.60;100548.19;5048912;28;44872;-83
2022/04/05 08:48:30;;;;;;;;;13.67;12.67;;;;;15.02;72.41;100512.53;5066442;28;45674;-83
2022/04/05 08:51:09;;;;;;;;;16.00;12.33;;;;;15.30;72.40;100545.34;5051746;28;45538;-83
2022/04/05 08:53:35;;;;;;;;;13.00;12.67;;;;;15.12;72.58;100516.94;5032326;28;45408;-83
2022/04/05 08:56:19;;;;;;;;;;;;;;;;;;;;;
2022/04/05 08:59:01;;;;;;;;;13.33;13.33;;;;;15.55;71.85;100554.09;5048020;28;65845;-83
2022/04/05 09:01:32;;;;;;;;;13.67;13.67;;;;;15.37;71.74;100543.50;5058881;28;46688;-84
2022/04/05 09:04:11;;;;;;;;;24.00;21.67;;;;;15.59;71.52;100529.03;5064419;28;45336;-83
2022/04/05 09:06:51;;;;;;;;;24.67;24.00;;;;;15.59;72.03;100545.09;5068761;28;45496;-83
2022/04/05 09:09:28;;;;;;;;;24.67;24.67;;;;;15.46;71.55;100508.59;5075142;28;45502;-84
2022/04/05 09:11:56;;;;;;;;;21.00;18.67;;;;;15.41;71.93;100531.84;5070325;28;45343;-81
2022/04/05 09:14:28;;;;;;;;;19.67;19.00;;;;;15.45;71.59;100506.84;5054265;28;45498;-82
2022/04/05 09:17:05;;;;;;;;;11.67;11.00;;;;;15.67;70.62;100541.44;5063673;28;45452;-82
2022/04/05 09:19:46;;;;;;;;;19.00;17.00;;;;;15.57;71.38;100524.56;5096018;27;44911;-83
2022/04/05 09:22:35;;;;;;;;;16.67;15.67;;;;;15.46;71.36;100497.00;5102914;27;48139;-83
2022/04/05 09:25:06;;;;;;;;;12.00;12.00;;;;;15.74;71.75;100543.22;5068196;28;45293;-83
2022/04/05 09:27:54;;;;;;;;;24.33;19.67;;;;;15.88;70.66;100543.06;5070383;28;45433;-82
2022/04/05 09:30:28;;;;;;;;;19.67;19.33;;;;;15.77;71.00;100517.25;5105294;27;45709;-83
2022/04/05 09:33:11;;;;;;;;;24.33;22.67;;;;;15.96;70.79;100522.41;5072845;28;46899;-82
2022/04/05 09:35:58;;;;;;;;;27.33;23.67;;;;;16.26;69.51;100533.66;5095836;27;45875;-82
2022/04/05 09:38:31;;;;;;;;;21.33;21.33;;;;;15.98;69.27;100510.75;5090746;27;45343;-83
2022/04/05 09:41:26;;;;;;;;;16.67;14.67;;;;;16.28;68.29;100548.84;5091569;27;44862;-83
2022/04/05 09:44:01;;;;;;;;;20.67;16.33;;;;;16.11;68.89;100548.16;5091219;27;46358;-82
2022/04/05 09:46:36;;;;;;;;;14.67;12.67;;;;;16.07;69.98;100551.78;5094103;28;46189;-82
2022/04/05 09:49:11;;;;;;;;;16.33;14.33;;;;;16.10;68.97;100508.84;5089299;28;45425;-82
2022/04/05 09:51:42;;;;;;;;;13.33;12.33;;;;;16.34;69.51;100546.09;5088927;28;45504;-82
2022/04/05 09:54:27;;;;;;;;;17.33;15.00;;;;;16.36;69.23;100520.13;5087350;28;46008;-82
2022/04/05 09:57:13;;;;;;;;;11.67;11.67;;;;;16.47;68.84;100536.06;5080985;28;45436;-83
2022/04/05 09:59:45;;;;;;;;;12.00;12.00;;;;;16.45;68.38;100540.56;5075232;28;45514;-82
2022/04/05 10:02:23;;;;;;;;;11.33;11.33;;;;;16.28;68.44;100513.06;5068122;28;45096;-82
2022/04/05 10:05:09;;;;;;;;;13.33;12.67;;;;;16.48;67.90;100547.69;5108892;27;47018;-82
2022/04/05 10:07:39;;;;;;;;;13.00;9.67;;;;;16.13;68.35;100514.16;5083335;28;45644;-82
2022/04/05 10:10:16;;;;;;;;;11.33;11.00;;;;;16.39;67.96;100528.09;5107170;27;45204;-82
2022/04/05 10:13:04;;;;;;;;;8.00;8.00;;;;;16.46;67.87;100544.13;5091974;27;45341;-84
2022/04/05 10:15:51;;;;;;;;;11.00;11.00;;;;;16.06;67.83;100507.06;5107276;27;46242;-82
2022/04/05 10:18:21;;;;;;;;;13.33;11.00;;;;;16.39;67.76;100548.69;5088579;27;44954;-83
2022/04/05 10:21:03;;;;;;;;;;;;;;;;;;;;;
2022/04/05 10:23:41;;;;;;;;;9.67;9.00;;;;;16.15;67.69;100510.53;5092227;27;64218;-83
2022/04/05 10:26:24;;;;;;;;;12.33;11.67;;;;;16.05;67.83;100527.66;5095708;27;45984;-83
2022/04/05 10:28:53;;;;;;;;;9.33;9.33;;;;;16.12;68.13;100517.75;5101512;27;45424;-83
2022/04/05 10:35:09;;;;;;;;;12.00;9.00;;;;;16.13;68.01;100496.25;5098451;27;45379;-83
2022/04/05 10:37:44;;;;;;;;;13.00;10.00;;;;;16.24;68.26;100516.69;5104283;27;45470;-82
2022/04/05 10:40:20;;;;;;;;;14.33;12.00;;;;;16.16;67.93;100515.00;5098638;27;45379;-82
2022/04/05 10:42:58;;;;;;;;;15.00;11.67;;;;;16.08;68.55;100505.25;5100445;27;45324;-83
2022/04/05 10:45:45;;;;;;;;;16.33;14.00;;;;;16.32;68.04;100528.19;5089038;27;44807;-82
2022/04/05 10:48:31;;;;;;;;;10.33;10.33;;;;;16.38;68.04;100520.06;5091658;28;48032;-83
2022/04/05 10:51:05;;;;;;;;;16.67;13.00;;;;;16.49;69.03;100539.63;5092749;27;45626;-83
2022/04/05 10:54:27;;;;;;;;;11.33;11.33;;;;;16.65;68.42;100540.28;5112432;27;45422;-83
2022/04/05 11:00:24;;;;;;;;;11.00;11.00;;;;;16.91;66.85;100536.38;5106846;27;44976;-82
2022/04/05 11:03:11;;;;;;;;;11.67;10.00;;;;;16.84;67.54;100530.19;5094970;27;45841;-82
2022/04/05 11:05:54;;;;;;;;;10.00;9.00;;;;;16.55;67.41;100504.63;5097596;28;44853;-83
2022/04/05 11:08:23;;;;;;;;;10.67;9.00;;;;;16.62;67.27;100536.75;5096090;27;45659;-82
2022/04/05 11:10:51;;;;;;;;;10.33;9.33;;;;;16.69;67.35;100538.47;5111535;27;46778;-82
2022/04/05 11:13:33;;;;;;;;;9.33;9.33;;;;;16.72;67.01;100538.41;5102820;27;45436;-82
2022/04/05 11:16:00;;;;;;;;;14.00;12.33;;;;;16.56;67.79;100535.94;5104628;27;45527;-82
2022/04/05 11:18:34;;;;;;;;;12.00;12.00;;;;;16.61;67.85;100522.47;5109447;27;44826;-83
2022/04/05 11:21:06;;;;;;;;;11.67;11.67;;;;;16.62;67.67;100523.34;5112799;27;48228;-83
2022/04/05 11:23:52;;;;;;;;;15.00;11.67;;;;;16.61;67.43;100535.88;5107055;27;45577;-85
2022/04/05 11:26:38;;;;;;;;;10.67;10.33;;;;;16.53;67.93;100535.97;5091412;28;45412;-82
2022/04/05 11:29:19;;;;;;;;;4.00;4.00;;;;;16.26;68.62;100505.03;5112219;27;45491;-83
2022/04/05 11:31:45;;;;;;;;;11.00;9.67;;;;;16.10;69.20;100498.97;5110776;27;47746;-83
2022/04/05 11:34:34;;;;;;;;;16.00;11.33;;;;;16.47;68.63;100529.81;5101163;27;45354;-85
2022/04/05 11:37:01;;;;;;;;;11.67;11.33;;;;;16.35;69.26;100525.50;5091777;27;44886;-83
2022/04/05 11:39:31;;;;;;;;;13.33;11.00;;;;;16.32;69.06;100520.16;5094593;27;45608;-84
2022/04/05 11:45:26;;;;;;;;;13.33;11.33;;;;;16.44;69.21;100525.38;5093481;28;45304;-83
2022/04/05 11:47:55;;;;;;;;;12.33;12.33;;;;;16.37;68.98;100512.94;5092292;27;45420;-83
2022/04/05 11:50:23;;;;;;;;;11.33;10.67;;;;;16.40;69.10;100526.31;5095122;27;44822;-82
2022/04/05 11:52:51;;;;;;;;;14.67;10.67;;;;;16.02;69.29;100490.16;5091682;28;47153;-83
2022/04/05 11:58:11;;;;;;;;;12.00;10.00;;;;;16.34;70.21;100526.38;5099650;27;45515;-84
2022/04/05 12:00:56;;;;;;;;;11.00;11.00;;;;;16.32;69.83;100509.41;5099295;27;45674;-83
2022/04/05 12:03:26;;;;;;;;;14.00;13.00;;;;;16.19;70.93;100501.53;5109153;27;47613;-85
2022/04/05 12:05:52;;;;;;;;;11.00;11.00;;;;;16.20;71.02;100495.28;5081321;27;45450;-82
2022/04/05 12:08:18;;;;;;;;;9.67;9.67;;;;;16.35;70.85;100514.75;5096812;27;45819;-83
2022/04/05 12:10:46;;;;;;;;;13.00;13.00;;;;;16.54;70.65;100513.59;5111892;27;45471;-80